Time;durP1;ratioP1;P1;durP2;ratioP2;P2;SDS_P1;SDS_P2;PMS_P1;PMS_P2;Temp;Humidity;BMP_temperature;BMP_pressure;BME280_temperature;BME280_humidity;BME280_pressure;Samples;Min_cycle;Max_cycle;Signal;HPM_P1;HPM_P2
2021/04/20 00:01:23;;;;;;;1999.90;999.90;;;;;;;10.52;69.84;101284.84;15935498;27;20442;-60
2021/04/20 00:08:56;;;;;;;1999.90;999.90;;;;;;;10.39;69.85;101278.19;15955127;27;20050;-60
2021/04/20 00:16:27;;;;;;;1999.90;999.90;;;;;;;10.09;70.76;101265.81;15886148;27;20116;-61
2021/04/20 00:24:00;;;;;;;1999.90;999.90;;;;;;;10.02;70.74;101271.84;15949540;27;20074;-55
2021/04/20 00:31:32;;;;;;;1999.90;999.90;;;;;;;9.78;71.25;101260.97;15933350;27;20134;-60
2021/04/20 00:39:06;;;;;;;1999.90;999.90;;;;;;;9.73;71.61;101254.69;15874764;27;20039;-59
2021/04/20 00:46:38;;;;;;;1999.90;999.90;;;;;;;9.78;71.56;101257.34;15970485;27;20042;-61
2021/04/20 00:54:11;;;;;;;1999.90;999.90;;;;;;;9.67;71.94;101259.56;15947439;27;20045;-60
2021/04/20 01:01:44;;;;;;;1999.90;999.90;;;;;;;9.62;72.10;101237.41;15971506;27;20040;-59
2021/04/20 01:09:18;;;;;;;1999.90;999.90;;;;;;;9.40;72.73;101245.72;15926257;27;20050;-59
2021/04/20 01:16:49;;;;;;;1999.90;999.90;;;;;;;9.33;72.66;101250.88;15958498;27;20374;-57
2021/04/20 01:24:27;;;;;;;1999.90;999.90;;;;;;;9.24;71.88;101257.16;15953716;27;20047;-57
2021/04/20 01:31:59;;;;;;;1999.90;999.90;;;;;;;9.01;72.70;101247.06;15970864;27;20043;-58
2021/04/20 01:39:31;;;;;;;1999.90;999.90;;;;;;;9.04;71.88;101232.53;15938281;27;20087;-56
2021/04/20 01:47:05;;;;;;;1999.90;999.90;;;;;;;8.82;72.68;101238.00;15959104;27;20367;-54
2021/04/20 01:54:39;;;;;;;1999.90;999.90;;;;;;;8.65;72.85;101233.88;15909839;27;20042;-57
2021/04/20 02:02:11;;;;;;;1999.90;999.90;;;;;;;8.41;73.19;101233.22;15958381;27;20050;-57
2021/04/20 02:09:44;;;;;;;1999.90;999.90;;;;;;;8.27;73.22;101229.56;15926177;27;20466;-60
2021/04/20 02:17:16;;;;;;;1999.90;999.90;;;;;;;8.09;73.16;101228.47;15899943;27;20105;-54
2021/04/20 02:24:48;;;;;;;1999.90;999.90;;;;;;;8.05;73.79;101221.88;15951655;27;20043;-53
2021/04/20 02:32:20;;;;;;;1999.90;999.90;;;;;;;8.03;73.27;101227.75;15948091;27;20046;-53
2021/04/20 02:39:53;;;;;;;1999.90;999.90;;;;;;;7.97;73.32;101222.56;15965390;27;20095;-56
2021/04/20 02:47:27;;;;;;;1999.90;999.90;;;;;;;7.97;72.26;101220.59;15895546;27;20069;-58
2021/04/20 02:55:08;;;;;;;1999.90;999.90;;;;;;;7.92;72.42;101211.50;15998787;27;20065;-60
2021/04/20 03:02:44;;;;;;;1999.90;999.90;;;;;;;7.68;73.73;101215.22;15926775;27;20088;-60
2021/04/20 03:10:19;;;;;;;1999.90;999.90;;;;;;;7.64;72.98;101211.41;15998311;27;20054;-58
2021/04/20 03:17:54;;;;;;;1999.90;999.90;;;;;;;7.47;73.33;101206.38;15895547;27;20450;-60
2021/04/20 03:25:40;;;;;;;;;;;;;;;7.47;73.08;101211.94;15943806;27;20039;-58
2021/04/20 03:33:21;;;;;;;1999.90;999.90;;;;;;;7.35;73.52;101200.44;15884233;27;20425;-59
2021/04/20 03:40:58;;;;;;;1999.90;999.90;;;;;;;7.29;73.16;101206.38;15909127;27;20416;-60
2021/04/20 03:48:35;;;;;;;1999.90;999.90;;;;;;;7.21;71.93;101202.34;15977200;27;20058;-57
2021/04/20 03:56:09;;;;;;;1999.90;999.90;;;;;;;6.84;73.18;101194.75;15937835;27;20518;-59
2021/04/20 04:03:45;;;;;;;1999.90;999.90;;;;;;;6.97;73.30;101195.97;15904066;27;20043;-58
2021/04/20 04:11:20;;;;;;;1999.90;999.90;;;;;;;6.91;73.47;101193.28;15930985;27;20072;-60
2021/04/20 04:18:55;;;;;;;1999.90;999.90;;;;;;;6.95;73.33;101199.88;15890564;27;20450;-60
2021/04/20 04:26:30;;;;;;;1999.90;999.90;;;;;;;7.02;73.12;101201.47;15890814;27;20502;-59
2021/04/20 04:34:04;;;;;;;1999.90;999.90;;;;;;;7.14;72.47;101204.63;15957533;27;20421;-59
2021/04/20 04:41:36;;;;;;;1999.90;999.90;;;;;;;7.35;72.30;101213.50;15948986;27;20438;-60
2021/04/20 04:49:08;;;;;;;1999.90;999.90;;;;;;;7.49;72.31;101214.41;15949428;27;20050;-58
2021/04/20 04:56:42;;;;;;;1999.90;999.90;;;;;;;7.74;72.50;101221.53;15965067;27;20046;-61
2021/04/20 05:04:15;;;;;;;1999.90;999.90;;;;;;;7.99;72.67;101225.84;15966008;27;20051;-59
2021/04/20 05:11:48;;;;;;;1999.90;999.90;;;;;;;8.49;72.25;101232.50;15933859;27;20062;-61
2021/04/20 05:19:28;;;;;;;1999.90;999.90;;;;;;;9.01;71.64;101244.28;15911366;27;20168;-59
2021/04/20 05:27:01;;;;;;;1999.90;999.90;;;;;;;9.43;70.84;101242.28;15855729;27;20043;-58
2021/04/20 05:34:32;;;;;;;1999.90;999.90;;;;;;;9.87;69.66;101235.13;15919316;22;20050;-57
2021/04/20 05:42:05;;;;;;;1999.90;999.90;;;;;;;10.85;65.92;101243.50;15868331;27;20444;-61
2021/04/20 05:49:36;;;;;;;1999.90;999.90;;;;;;;11.53;64.28;101240.06;15803579;28;20051;-62
2021/04/20 05:57:09;;;;;;;1999.90;999.90;;;;;;;12.40;61.93;101235.28;15780479;28;20043;-60
2021/04/20 06:04:42;;;;;;;1999.90;999.90;;;;;;;12.65;60.02;101241.13;15797837;28;20122;-60
2021/04/20 06:12:15;;;;;;;1999.90;999.90;;;;;;;13.58;58.34;101237.38;15761547;28;20074;-60
2021/04/20 06:19:47;;;;;;;1999.90;999.90;;;;;;;14.47;56.66;101251.16;15797090;28;20071;-59
2021/04/20 06:27:19;;;;;;;1999.90;999.90;;;;;;;15.42;52.46;101245.13;15796013;28;20088;-60
2021/04/20 06:34:52;;;;;;;1999.90;999.90;;;;;;;16.04;52.11;101251.47;15760626;28;20040;-59
2021/04/20 06:42:28;;;;;;;1999.90;999.90;;;;;;;16.25;52.41;101249.28;15777714;28;20412;-59
2021/04/20 06:50:03;;;;;;;1999.90;999.90;;;;;;;16.41;50.29;101250.16;15796069;28;20119;-61
2021/04/20 06:57:39;;;;;;;1999.90;999.90;;;;;;;16.77;50.19;101248.31;15760931;28;20116;-61
2021/04/20 07:05:12;;;;;;;1999.90;999.90;;;;;;;17.61;48.83;101250.78;15777005;28;20054;-60
2021/04/20 07:12:48;;;;;;;1999.90;999.90;;;;;;;17.07;49.86;101247.88;15777717;28;20078;-61
2021/04/20 07:20:31;;;;;;;1999.90;999.90;;;;;;;17.21;49.77;101251.06;15782193;28;20439;-58
2021/04/20 07:28:13;;;;;;;1999.90;999.90;;;;;;;19.28;43.99;101245.69;15807693;28;20048;-60
2021/04/20 07:35:54;;;;;;;1999.90;999.90;;;;;;;19.43;43.92;101249.53;15787955;28;20308;-61
2021/04/20 07:43:38;;;;;;;1999.90;999.90;;;;;;;19.47;44.32;101241.91;15787917;28;20051;-58
2021/04/20 07:51:16;;;;;;;1999.90;999.90;;;;;;;19.76;44.50;101242.34;15805354;28;20044;-61
2021/04/20 07:58:51;;;;;;;1999.90;999.90;;;;;;;19.10;44.65;101240.91;15813190;27;20032;-60
2021/04/20 08:06:26;;;;;;;1999.90;999.90;;;;;;;19.79;45.91;101231.06;15855532;28;20078;-59
2021/04/20 08:14:04;;;;;;;1999.90;999.90;;;;;;;20.76;42.42;101224.56;15886020;27;20066;-60
2021/04/20 08:21:39;;;;;;;1999.90;999.90;;;;;;;21.68;40.39;101226.53;15901634;27;20384;-61
2021/04/20 08:29:18;;;;;;;1999.90;999.90;;;;;;;21.30;41.61;101220.19;15884582;27;20548;-62
2021/04/20 08:36:58;;;;;;;1999.90;999.90;;;;;;;19.97;42.96;101219.19;15901766;27;20173;-62
2021/04/20 08:44:39;;;;;;;1999.90;999.90;;;;;;;20.67;40.11;101218.38;15897655;27;20040;-61
2021/04/20 08:52:35;;;;;;;1999.90;999.90;;;;;;;21.99;37.88;101213.66;15863960;27;20077;-60
2021/04/20 09:00:13;;;;;;;1999.90;999.90;;;;;;;21.86;38.43;101219.69;15879412;27;20141;-60
2021/04/20 09:07:56;;;;;;;1999.90;999.90;;;;;;;22.56;38.36;101209.00;15864069;27;20055;-58
2021/04/20 09:15:37;;;;;;;1999.90;999.90;;;;;;;23.16;37.88;101213.97;15859305;27;20047;-62
2021/04/20 09:23:20;;;;;;;1999.90;999.90;;;;;;;22.12;37.54;101206.47;15846292;27;20134;-60
2021/04/20 09:30:55;;;;;;;1999.90;999.90;;;;;;;22.56;38.21;101205.34;15783573;28;20146;-58
2021/04/20 09:38:27;;;;;;;1999.90;999.90;;;;;;;22.93;36.17;101208.69;15766223;28;20448;-59
2021/04/20 09:46:08;;;;;;;1999.90;999.90;;;;;;;23.66;34.96;101207.41;15800901;28;20406;-57
2021/04/20 09:53:54;;;;;;;1999.90;999.90;;;;;;;24.66;34.45;101204.91;15857938;27;20156;-60
2021/04/20 10:01:41;;;;;;;1999.90;999.90;;;;;;;24.36;33.37;101202.66;15877138;27;20137;-59
2021/04/20 10:09:24;;;;;;;1999.90;999.90;;;;;;;24.61;34.24;101197.63;15875095;27;20517;-58
2021/04/20 10:17:04;;;;;;;1999.90;999.90;;;;;;;25.63;31.51;101194.25;15863974;27;20078;-57
2021/04/20 10:24:38;;;;;;;1999.90;999.90;;;;;;;25.45;32.96;101188.75;15828954;27;20044;-59
2021/04/20 10:32:18;;;;;;;1999.90;999.90;;;;;;;26.24;32.62;101190.69;15849578;28;20070;-55
2021/04/20 10:39:51;;;;;;;1999.90;999.90;;;;;;;25.98;31.62;101189.41;15886721;28;20056;-56
2021/04/20 10:47:26;;;;;;;1999.90;999.90;;;;;;;26.15;31.41;101179.75;15849394;28;20070;-60
2021/04/20 10:55:03;;;;;;;1999.90;999.90;;;;;;;26.06;31.91;101174.59;15863037;28;20118;-59
2021/04/20 11:02:43;;;;;;;1999.90;999.90;;;;;;;26.29;32.45;101168.16;15844815;28;20108;-59
2021/04/20 11:10:25;;;;;;;1999.90;999.90;;;;;;;25.57;32.52;101167.41;15910939;27;20051;-57
2021/04/20 11:18:08;;;;;;;1999.90;999.90;;;;;;;25.51;33.02;101158.47;15825936;28;20157;-59
2021/04/20 11:25:45;;;;;;;1999.90;999.90;;;;;;;26.59;30.75;101146.47;15808073;27;20120;-58
2021/04/20 11:33:26;;;;;;;1999.90;999.90;;;;;;;26.52;28.85;101147.38;15876353;27;20082;-59
2021/04/20 11:41:04;;;;;;;1999.90;999.90;;;;;;;26.04;30.67;101139.88;15869129;27;20052;-57
2021/04/20 11:48:36;;;;;;;1999.90;999.90;;;;;;;26.53;30.27;101128.16;15882981;27;20043;-59
2021/04/20 11:56:09;;;;;;;1999.90;999.90;;;;;;;27.22;28.71;101138.84;15902210;27;20306;-52
2021/04/20 12:03:51;;;;;;;1999.90;999.90;;;;;;;27.99;28.26;101125.44;15830901;27;20055;-59
2021/04/20 12:11:26;;;;;;;1999.90;999.90;;;;;;;28.75;27.72;101120.38;15863421;27;20063;-59
2021/04/20 12:18:59;;;;;;;1999.90;999.90;;;;;;;30.27;26.23;101113.66;15801854;28;20048;-55
2021/04/20 12:26:32;;;;;;;1999.90;999.90;;;;;;;30.42;26.85;101109.03;15802775;28;20175;-52
2021/04/20 12:34:05;;;;;;;1999.90;999.90;;;;;;;29.96;26.00;101096.91;15784463;28;20116;-57
2021/04/20 12:41:39;;;;;;;1999.90;999.90;;;;;;;29.85;26.37;101090.66;15784523;28;20048;-52
2021/04/20 12:49:15;;;;;;;1999.90;999.90;;;;;;;29.42;26.49;101085.34;15767711;28;20139;-54
2021/04/20 12:56:53;;;;;;;1999.90;999.90;;;;;;;33.03;24.37;101074.78;15804598;28;20373;-54
2021/04/20 13:04:29;;;;;;;1999.90;999.90;;;;;;;34.25;19.95;101079.44;15804016;28;20546;-56
2021/04/20 13:12:02;;;;;;;1999.90;999.90;;;;;;;35.26;19.98;101067.25;15830700;28;20126;-56
2021/04/20 13:19:37;;;;;;;1999.90;999.90;;;;;;;35.24;19.11;101043.75;15836428;28;20055;-59
2021/04/20 13:27:12;;;;;;;1999.90;999.90;;;;;;;36.68;17.50;101050.44;15805490;28;20044;-55
2021/04/20 13:34:46;;;;;;;1999.90;999.90;;;;;;;32.42;22.28;101025.41;15861862;28;20047;-56
2021/04/20 13:42:25;;;;;;;1999.90;999.90;;;;;;;30.91;21.80;101020.13;15816394;28;20414;-57
2021/04/20 13:49:58;;;;;;;1999.90;999.90;;;;;;;25.68;28.37;101002.34;15825675;28;20043;-52
2021/04/20 13:57:33;;;;;;;1999.90;999.90;;;;;;;23.65;33.00;100986.44;15840521;27;20046;-51
2021/04/20 14:05:08;;;;;;;1999.90;999.90;;;;;;;23.24;34.25;100975.63;15871500;27;20040;-53
2021/04/20 14:12:45;;;;;;;1999.90;999.90;;;;;;;22.89;34.43;100968.06;15846401;27;20368;-56
2021/04/20 14:20:20;;;;;;;1999.90;999.90;;;;;;;23.40;34.77;100956.03;15869202;27;20134;-57
2021/04/20 14:27:53;;;;;;;1999.90;999.90;;;;;;;22.62;34.26;100959.16;15857075;27;20115;-53
2021/04/20 14:35:29;;;;;;;1999.90;999.90;;;;;;;22.08;33.84;100947.03;15816465;28;20127;-55
2021/04/20 14:43:02;;;;;;;1999.90;999.90;;;;;;;22.98;33.01;100937.13;15842437;28;20488;-56
2021/04/20 14:50:36;;;;;;;1999.90;999.90;;;;;;;21.90;32.65;100944.19;15812606;28;20082;-59
2021/04/20 14:58:10;;;;;;;1999.90;999.90;;;;;;;21.36;32.52;100945.28;15802964;28;20183;-53
2021/04/20 15:05:44;;;;;;;1999.90;999.90;;;;;;;22.07;32.39;100937.69;15820378;28;20078;-55
2021/04/20 15:13:19;;;;;;;1999.90;999.90;;;;;;;21.02;32.24;100929.34;15822764;28;20079;-57
2021/04/20 15:20:55;;;;;;;1999.90;999.90;;;;;;;21.34;32.06;100914.47;15804548;28;20298;-56
2021/04/20 15:28:28;;;;;;;1999.90;999.90;;;;;;;20.93;32.00;100911.06;15813791;28;20044;-54
2021/04/20 15:36:06;;;;;;;1999.90;999.90;;;;;;;21.44;32.67;100910.84;15822373;28;20413;-61
2021/04/20 15:43:39;;;;;;;1999.90;999.90;;;;;;;21.47;31.58;100900.72;15825637;28;20051;-60
2021/04/20 15:51:18;;;;;;;1999.90;999.90;;;;;;;21.21;31.88;100910.34;15865223;27;20071;-58
2021/04/20 15:58:55;;;;;;;1999.90;999.90;;;;;;;21.31;30.44;100899.06;15875158;27;20082;-61
2021/04/20 16:06:29;;;;;;;1999.90;999.90;;;;;;;21.09;30.82;100903.03;15871267;27;20039;-57
2021/04/20 16:14:03;;;;;;;1999.90;999.90;;;;;;;21.02;32.42;100900.16;15847768;27;20138;-59
2021/04/20 16:21:37;;;;;;;1999.90;999.90;;;;;;;20.82;30.69;100896.84;15851967;27;20088;-54
2021/04/20 16:29:12;;;;;;;1999.90;999.90;;;;;;;20.26;31.85;100892.47;15858157;27;20179;-60
2021/04/20 16:36:55;;;;;;;1999.90;999.90;;;;;;;20.43;32.16;100905.16;15843954;27;20184;-58
2021/04/20 16:44:41;;;;;;;1999.90;999.90;;;;;;;20.29;32.22;100890.84;15810794;28;20054;-58
2021/04/20 16:52:31;;;;;;;1999.90;999.90;;;;;;;20.28;32.11;100892.88;15828417;27;20040;-57
2021/04/20 17:00:14;;;;;;;1999.90;999.90;;;;;;;20.00;32.67;100889.84;15836835;27;20518;-55
2021/04/20 17:07:53;;;;;;;1999.90;999.90;;;;;;;19.95;33.49;100879.72;15853575;27;20071;-53
2021/04/20 17:15:37;;;;;;;1999.90;999.90;;;;;;;19.77;35.86;100882.38;15807271;28;20369;-55
2021/04/20 17:23:42;;;;;;;1999.90;999.90;;;;;;;19.57;34.03;100890.31;15838321;28;20058;-54
2021/04/20 17:31:24;;;;;;;1999.90;999.90;;;;;;;19.26;35.11;100883.09;15802626;28;20120;-54
2021/04/20 17:39:02;;;;;;;1999.90;999.90;;;;;;;19.07;35.64;100888.13;15835297;28;20052;-52
2021/04/20 17:46:42;;;;;;;1999.90;999.90;;;;;;;18.84;37.00;100902.41;15781250;28;20294;-53
2021/04/20 17:54:20;;;;;;;1999.90;999.90;;;;;;;18.74;37.94;100898.25;15843118;28;20051;-55
2021/04/20 18:01:55;;;;;;;1999.90;999.90;;;;;;;18.38;39.00;100902.56;15828115;28;20062;-51
2021/04/20 18:09:34;;;;;;;1999.90;999.90;;;;;;;18.08;40.16;100908.19;15808501;28;20058;-58
2021/04/20 18:17:19;;;;;;;1999.90;999.90;;;;;;;17.84;39.79;100912.22;15822686;28;20567;-57
2021/04/20 18:25:05;;;;;;;1999.90;999.90;;;;;;;17.54;41.72;100920.53;15811512;28;20159;-53
2021/04/20 18:32:55;;;;;;;1999.90;999.90;;;;;;;17.08;40.74;100936.56;15830175;28;20047;-53
2021/04/20 18:40:52;;;;;;;1999.90;999.90;;;;;;;16.92;41.78;100939.47;15844095;28;20047;-53
2021/04/20 18:48:55;;;;;;;1999.90;999.90;;;;;;;16.68;42.88;100947.03;15832715;28;20044;-58
2021/04/20 18:56:38;;;;;;;1999.90;999.90;;;;;;;16.47;42.97;100948.53;15827308;28;20078;-55
2021/04/20 19:05:02;;;;;;;1999.90;999.90;;;;;;;16.29;43.84;100963.00;15822281;28;20074;-57
2021/04/20 19:13:30;;;;;;;1999.90;999.90;;;;;;;16.03;44.51;100962.75;15756580;28;20044;-58
2021/04/20 19:21:14;;;;;;;1999.90;999.90;;;;;;;15.81;44.89;100958.56;15854580;28;20500;-53
2021/04/20 19:28:57;;;;;;;1999.90;999.90;;;;;;;15.62;44.84;100962.09;15817617;28;20063;-55
2021/04/20 19:36:39;;;;;;;1999.90;999.90;;;;;;;15.45;45.34;100960.44;15823828;28;20488;-59
2021/04/20 19:44:16;;;;;;;1999.90;999.90;;;;;;;15.28;45.60;100972.00;15820028;28;20078;-59
2021/04/20 19:51:56;;;;;;;1999.90;999.90;;;;;;;15.10;45.74;100963.03;15833508;28;20066;-54
2021/04/20 19:59:30;;;;;;;1999.90;999.90;;;;;;;14.76;46.83;100961.66;15832734;28;20051;-55
2021/04/20 20:07:05;;;;;;;1999.90;999.90;;;;;;;14.56;47.75;100957.84;15804819;28;20036;-55
2021/04/20 20:14:40;;;;;;;1999.90;999.90;;;;;;;14.36;47.13;100962.41;15827285;28;20051;-52
2021/04/20 20:22:20;;;;;;;1999.90;999.90;;;;;;;14.21;46.12;100954.69;15806201;28;20157;-53
2021/04/20 20:29:52;;;;;;;1999.90;999.90;;;;;;;14.11;47.33;100958.78;15789097;28;20040;-52
2021/04/20 20:37:26;;;;;;;1999.90;999.90;;;;;;;14.01;47.54;100961.25;15838442;28;20054;-52
2021/04/20 20:45:04;;;;;;;1999.90;999.90;;;;;;;13.84;47.93;100962.28;15824569;28;20139;-52
2021/04/20 20:52:49;;;;;;;1999.90;999.90;;;;;;;13.75;48.15;100951.16;15820934;28;20066;-51
2021/04/20 21:00:22;;;;;;;1999.90;999.90;;;;;;;13.60;48.79;100951.84;15809856;28;20052;-55
2021/04/20 21:07:58;;;;;;;1999.90;999.90;;;;;;;13.49;49.29;100961.88;15831183;28;20088;-54
2021/04/20 21:15:34;;;;;;;1999.90;999.90;;;;;;;13.31;49.70;100954.81;15860782;28;20104;-52
2021/04/20 21:23:23;;;;;;;1999.90;999.90;;;;;;;13.19;49.95;100958.41;15822468;28;20071;-52
2021/04/20 21:30:57;;;;;;;1999.90;999.90;;;;;;;12.93;50.69;100944.63;15819282;28;20079;-55
2021/04/20 21:38:34;;;;;;;1999.90;999.90;;;;;;;12.67;52.15;100945.66;15794510;28;20444;-57
2021/04/20 21:46:06;;;;;;;1999.90;999.90;;;;;;;12.41;52.54;100945.88;15824082;28;20458;-51
2021/04/20 21:53:47;;;;;;;1999.90;999.90;;;;;;;12.23;53.26;100949.09;15836686;28;20032;-52
2021/04/20 22:01:24;;;;;;;1999.90;999.90;;;;;;;12.02;54.16;100949.06;15835830;28;20082;-52
2021/04/20 22:08:58;;;;;;;1999.90;999.90;;;;;;;11.79;55.04;100959.66;15807463;28;20056;-58
2021/04/20 22:16:32;;;;;;;1999.90;999.90;;;;;;;11.65;55.26;100954.28;15801088;28;20457;-55
2021/04/20 22:24:10;;;;;;;;;;;;;;;11.67;55.54;100954.78;15846026;28;20377;-56
2021/04/20 22:31:48;;;;;;;1999.90;999.90;;;;;;;11.47;55.50;100963.91;15821253;28;20006;-52
2021/04/20 22:39:21;;;;;;;1999.90;999.90;;;;;;;11.41;55.32;100965.22;15826230;28;20156;-50
2021/04/20 22:46:57;;;;;;;1999.90;999.90;;;;;;;11.24;56.38;100966.88;15797096;28;20254;-54
2021/04/20 22:54:34;;;;;;;1999.90;999.90;;;;;;;11.08;56.43;100956.56;15805207;28;20757;-53
2021/04/20 23:02:06;;;;;;;1999.90;999.90;;;;;;;10.84;56.89;100962.69;15790263;28;20035;-54
2021/04/20 23:09:40;;;;;;;1999.90;999.90;;;;;;;10.68;57.50;100960.38;15820428;28;20040;-52
2021/04/20 23:17:18;;;;;;;1999.90;999.90;;;;;;;10.43;58.39;100952.81;15832561;28;20048;-55
2021/04/20 23:24:57;;;;;;;1999.90;999.90;;;;;;;10.24;59.04;100958.69;15829826;28;20184;-53
2021/04/20 23:32:30;;;;;;;1999.90;999.90;;;;;;;10.02;59.27;100947.59;15796616;22;20051;-58
2021/04/20 23:40:04;;;;;;;1999.90;999.90;;;;;;;9.87;60.47;100948.03;15833230;28;20127;-60
2021/04/20 23:47:38;;;;;;;1999.90;999.90;;;;;;;9.70;61.61;100932.09;15929496;27;20413;-53
2021/04/20 23:55:14;;;;;;;1999.90;999.90;;;;;;;9.50;61.87;100931.50;15927196;27;20035;-51
